createdAt,value
2023-02-04T00:00:54.473Z,0
2023-02-04T00:01:56.074Z,0
2023-02-04T00:02:57.485Z,0
2023-02-04T00:03:57.852Z,0
2023-02-04T00:04:58.408Z,0
2023-02-04T00:05:59.262Z,0
2023-02-04T00:06:59.959Z,0
2023-02-04T00:08:00.675Z,0
2023-02-04T00:09:01.206Z,0
2023-02-04T00:10:01.733Z,0
2023-02-04T00:11:02.446Z,0
2023-02-04T00:12:34.393Z,0
2023-02-04T00:13:35.096Z,0
2023-02-04T00:14:35.650Z,0
2023-02-04T00:15:36.201Z,0
2023-02-04T00:16:36.850Z,0
2023-02-04T00:17:37.563Z,0
2023-02-04T00:18:39.048Z,0
2023-02-04T00:19:39.833Z,0
2023-02-04T00:20:40.672Z,0
2023-02-04T00:21:42.061Z,0
2023-02-04T00:22:42.789Z,0
2023-02-04T00:23:43.570Z,0
2023-02-04T00:24:44.122Z,0
2023-02-04T00:25:44.656Z,0
2023-02-04T00:26:45.252Z,0
2023-02-04T00:27:46.205Z,0
2023-02-04T00:28:46.802Z,0
2023-02-04T00:29:47.479Z,0
2023-02-04T00:30:48.111Z,0
2023-02-04T00:31:49.687Z,0
2023-02-04T00:32:50.124Z,0
2023-02-04T00:33:50.948Z,0
2023-02-04T00:34:51.666Z,0
2023-02-04T00:35:52.369Z,0
2023-02-04T00:36:53.024Z,0
2023-02-04T00:37:54.348Z,0
2023-02-04T00:38:55.300Z,0
2023-02-04T00:39:55.905Z,0
2023-02-04T00:40:57.156Z,0
2023-02-04T00:41:58.558Z,0
2023-02-04T00:42:59.091Z,0
2023-02-04T00:43:59.617Z,0
2023-02-04T00:45:00.411Z,0
2023-02-04T00:46:01.136Z,0
2023-02-04T00:47:01.702Z,0
2023-02-04T00:48:32.933Z,0
2023-02-04T00:49:33.522Z,0
2023-02-04T00:50:34.251Z,0
2023-02-04T00:51:34.900Z,0
2023-02-04T00:52:36.493Z,0
2023-02-04T00:53:37.203Z,0
2023-02-04T00:54:37.895Z,0
2023-02-04T00:55:38.582Z,0
2023-02-04T00:56:39.314Z,0
2023-02-04T00:57:39.958Z,0
2023-02-04T00:58:40.877Z,0
2023-02-04T00:59:41.434Z,0
2023-02-04T01:00:42.010Z,0
2023-02-04T01:01:42.603Z,0
2023-02-04T01:02:43.985Z,0
2023-02-04T01:03:44.757Z,0
2023-02-04T01:04:45.514Z,0
2023-02-04T01:05:46.195Z,0
2023-02-04T01:06:46.950Z,0
2023-02-04T01:07:47.628Z,0
2023-02-04T01:08:48.074Z,0
2023-02-04T01:09:48.816Z,0
2023-02-04T01:10:49.356Z,0
2023-02-04T01:11:49.859Z,0
2023-02-04T01:12:51.390Z,0
2023-02-04T01:13:52.165Z,0
2023-02-04T01:14:52.850Z,0
2023-02-04T01:15:53.481Z,0
2023-02-04T01:16:54.025Z,0
2023-02-04T01:17:54.568Z,0
2023-02-04T01:18:55.054Z,0
2023-02-04T01:19:55.537Z,0
2023-02-04T01:20:56.067Z,0
2023-02-04T01:21:56.576Z,0
2023-02-04T01:22:57.917Z,0
2023-02-04T01:23:58.523Z,0
2023-02-04T01:24:59.073Z,0
2023-02-04T01:25:59.607Z,0
2023-02-04T01:27:00.910Z,0
2023-02-04T01:28:01.442Z,0
2023-02-04T01:29:32.462Z,0
2023-02-04T01:30:33.317Z,0
2023-02-04T01:31:33.600Z,0
2023-02-04T01:32:34.886Z,0
2023-02-04T01:33:35.423Z,0
2023-02-04T01:34:35.982Z,0
2023-02-04T01:35:37.333Z,0
2023-02-04T01:36:37.843Z,0
2023-02-04T01:37:38.442Z,0
2023-02-04T01:38:39.007Z,0
2023-02-04T01:39:39.583Z,0
2023-02-04T01:40:40.132Z,0
2023-02-04T01:41:41.585Z,0
2023-02-04T01:42:42.153Z,0
2023-02-04T01:43:43.388Z,0
2023-02-04T01:44:43.910Z,0
2023-02-04T01:45:44.484Z,0
2023-02-04T01:46:45.070Z,0
2023-02-04T01:47:45.662Z,0
2023-02-04T01:48:46.242Z,0
2023-02-04T01:49:46.761Z,0
2023-02-04T01:50:47.341Z,0
2023-02-04T01:51:47.875Z,0
2023-02-04T01:52:49.394Z,0
2023-02-04T01:53:49.883Z,0
2023-02-04T01:54:50.402Z,0
2023-02-04T01:55:50.905Z,0
2023-02-04T01:56:51.467Z,0
2023-02-04T01:57:51.951Z,0
2023-02-04T01:58:52.488Z,0
2023-02-04T01:59:53.046Z,0
2023-02-04T02:00:53.594Z,0
2023-02-04T02:01:54.270Z,0
2023-02-04T02:02:54.735Z,0
2023-02-04T02:03:56.068Z,0
2023-02-04T02:04:56.579Z,0
2023-02-04T02:05:57.258Z,0
2023-02-04T02:06:57.818Z,0
2023-02-04T02:07:58.352Z,0
2023-02-04T02:08:58.882Z,0
2023-02-04T02:09:59.380Z,0
2023-02-04T02:11:00.052Z,0
2023-02-04T02:12:31.995Z,0
2023-02-04T02:13:33.114Z,0
2023-02-04T02:14:33.648Z,0
2023-02-04T02:15:34.216Z,0
2023-02-04T02:16:34.816Z,0
2023-02-04T02:17:35.262Z,0
2023-02-04T02:18:35.782Z,0
2023-02-04T02:19:36.334Z,0
2023-02-04T02:20:36.882Z,0
2023-02-04T02:21:37.409Z,0
2023-02-04T02:22:39.087Z,0
2023-02-04T02:23:39.705Z,0
2023-02-04T02:24:40.289Z,0
2023-02-04T02:25:40.893Z,0
2023-02-04T02:26:41.357Z,0
2023-02-04T02:27:41.949Z,0
2023-02-04T02:28:42.424Z,0
2023-02-04T02:29:43.005Z,0
2023-02-04T02:30:43.613Z,0
2023-02-04T02:31:44.247Z,0
2023-02-04T02:32:45.599Z,0
2023-02-04T02:33:46.208Z,0
2023-02-04T02:34:46.732Z,0
2023-02-04T02:35:47.316Z,0
2023-02-04T02:36:47.854Z,0
2023-02-04T02:37:48.401Z,0
2023-02-04T02:38:48.948Z,0
2023-02-04T02:39:49.485Z,0
2023-02-04T02:40:50.109Z,0
2023-02-04T02:41:51.588Z,0
2023-02-04T02:42:52.093Z,0
2023-02-04T02:43:53.679Z,0
2023-02-04T02:44:54.231Z,0
2023-02-04T02:45:54.833Z,0
2023-02-04T02:46:55.313Z,0
2023-02-04T02:47:55.924Z,0
2023-02-04T02:48:56.481Z,0
2023-02-04T02:49:57.010Z,0
2023-02-04T02:50:57.624Z,0
2023-02-04T02:51:58.156Z,0
2023-02-04T02:52:59.565Z,0
2023-02-04T02:54:00.176Z,0
2023-02-04T02:55:31.425Z,0
2023-02-04T02:56:32.051Z,0
2023-02-04T02:57:32.599Z,0
2023-02-04T02:58:33.110Z,0
2023-02-04T02:59:33.655Z,0
2023-02-04T03:00:34.414Z,0
2023-02-04T03:01:35.440Z,0
2023-02-04T03:02:35.929Z,0
2023-02-04T03:03:37.336Z,0
2023-02-04T03:04:37.891Z,0
2023-02-04T03:05:38.431Z,0
2023-02-04T03:06:38.968Z,0
2023-02-04T03:07:39.526Z,0
2023-02-04T03:08:40.067Z,0
2023-02-04T03:09:40.833Z,0
2023-02-04T03:10:41.370Z,0
2023-02-04T03:11:41.913Z,0
2023-02-04T03:12:43.102Z,0
2023-02-04T03:13:43.661Z,0
2023-02-04T03:14:44.827Z,0
2023-02-04T03:15:45.432Z,0
2023-02-04T03:16:45.922Z,0
2023-02-04T03:17:46.479Z,0
2023-02-04T03:18:47.016Z,0
2023-02-04T03:19:47.516Z,0
2023-02-04T03:20:48.044Z,0
2023-02-04T03:21:48.617Z,0
2023-02-04T03:22:50.106Z,0
2023-02-04T03:23:50.774Z,0
2023-02-04T03:24:51.259Z,0
2023-02-04T03:25:51.877Z,0
2023-02-04T03:26:52.447Z,0
2023-02-04T03:27:53.052Z,0
2023-02-04T03:28:53.539Z,0
2023-02-04T03:29:54.171Z,0
2023-02-04T03:30:54.800Z,0
2023-02-04T03:31:55.362Z,0
2023-02-04T03:32:56.661Z,0
2023-02-04T03:33:57.225Z,0
2023-02-04T03:34:57.741Z,0
2023-02-04T03:35:58.354Z,0
2023-02-04T03:36:58.871Z,0
2023-02-04T03:37:59.398Z,0
2023-02-04T03:38:59.909Z,0
2023-02-04T03:40:31.153Z,0
2023-02-04T03:41:31.454Z,0
2023-02-04T03:42:32.911Z,0
2023-02-04T03:43:34.333Z,0
2023-02-04T03:44:34.903Z,0
2023-02-04T03:45:45.068Z,0
2023-02-04T03:46:36.040Z,0
2023-02-04T03:47:36.614Z,0
2023-02-04T03:48:37.118Z,0
2023-02-04T03:49:37.715Z,0
2023-02-04T03:50:38.255Z,0
2023-02-04T03:51:38.802Z,0
2023-02-04T03:52:39.351Z,0
2023-02-04T03:53:40.645Z,0
2023-02-04T03:54:41.139Z,0
2023-02-04T03:55:41.711Z,0
2023-02-04T03:56:42.251Z,0
2023-02-04T03:57:42.773Z,0
2023-02-04T03:58:43.308Z,0
2023-02-04T03:59:43.876Z,0
2023-02-04T04:00:44.394Z,0
2023-02-04T04:01:44.974Z,0
2023-02-04T04:02:45.607Z,0
2023-02-04T04:03:46.831Z,0
2023-02-04T04:04:47.368Z,0
2023-02-04T04:05:47.878Z,0
2023-02-04T04:06:48.397Z,0
2023-02-04T04:07:48.977Z,0
2023-02-04T04:08:49.502Z,0
2023-02-04T04:09:49.999Z,0
2023-02-04T04:10:50.532Z,0
2023-02-04T04:11:51.072Z,0
2023-02-04T04:12:52.361Z,0
2023-02-04T04:13:53.379Z,0
2023-02-04T04:14:53.937Z,0
2023-02-04T04:15:54.559Z,0
2023-02-04T04:16:55.113Z,0
2023-02-04T04:17:55.623Z,0
2023-02-04T04:18:56.180Z,0
2023-02-04T04:19:56.730Z,0
2023-02-04T04:20:57.232Z,0
2023-02-04T04:21:57.772Z,0
2023-02-04T04:22:58.305Z,0
2023-02-04T04:23:59.424Z,0
2023-02-04T04:25:30.322Z,0
2023-02-04T04:26:30.874Z,0
2023-02-04T04:27:31.373Z,0
2023-02-04T04:28:31.940Z,0
2023-02-04T04:29:32.499Z,0
2023-02-04T04:30:33.678Z,0
2023-02-04T04:31:33.854Z,0
2023-02-04T04:32:34.303Z,0
2023-02-04T04:33:35.625Z,0
2023-02-04T04:34:36.131Z,0
2023-02-04T04:35:36.628Z,0
2023-02-04T04:36:37.159Z,0
2023-02-04T04:37:37.843Z,0
2023-02-04T04:38:38.522Z,0
2023-02-04T04:39:39.072Z,0
2023-02-04T04:40:39.687Z,0
2023-02-04T04:41:40.212Z,0
2023-02-04T04:42:41.613Z,0
2023-02-04T04:43:43.261Z,0
2023-02-04T04:44:43.877Z,0
2023-02-04T04:45:44.461Z,0
2023-02-04T04:46:45.000Z,0
2023-02-04T04:47:45.630Z,0
2023-02-04T04:48:46.355Z,0
2023-02-04T04:49:47.023Z,0
2023-02-04T04:50:47.594Z,0
2023-02-04T04:51:48.121Z,0
2023-02-04T04:52:48.683Z,0
2023-02-04T04:53:50.182Z,0
2023-02-04T04:54:50.850Z,0
2023-02-04T04:55:51.511Z,0
2023-02-04T04:56:52.017Z,0
2023-02-04T04:57:52.588Z,0
2023-02-04T04:58:53.399Z,0
2023-02-04T04:59:54.222Z,0
2023-02-04T05:00:54.945Z,0
2023-02-04T05:01:55.485Z,0
2023-02-04T05:02:56.008Z,0
2023-02-04T05:03:57.349Z,0
2023-02-04T05:04:58.088Z,0
2023-02-04T05:05:58.788Z,0
2023-02-04T05:07:29.927Z,0
2023-02-04T05:08:30.516Z,0
2023-02-04T05:09:31.163Z,0
2023-02-04T05:10:32.225Z,0
2023-02-04T05:11:32.860Z,0
2023-02-04T05:12:34.091Z,0
2023-02-04T05:13:35.570Z,0
2023-02-04T05:14:36.137Z,0
2023-02-04T05:15:36.926Z,0
2023-02-04T05:16:37.677Z,0
2023-02-04T05:17:38.300Z,0
2023-02-04T05:18:38.820Z,0
2023-02-04T05:19:39.407Z,0
2023-02-04T05:20:39.939Z,0
2023-02-04T05:21:41.045Z,0
2023-02-04T05:22:41.701Z,0
2023-02-04T05:23:43.121Z,0
2023-02-04T05:24:43.677Z,0
2023-02-04T05:25:44.255Z,0
2023-02-04T05:26:45.462Z,0
2023-02-04T05:27:46.276Z,0
2023-02-04T05:28:46.988Z,0
2023-02-04T05:29:47.554Z,0
2023-02-04T05:30:48.130Z,0
2023-02-04T05:31:48.874Z,0
2023-02-04T05:32:49.579Z,0
2023-02-04T05:33:51.153Z,0
2023-02-04T05:34:51.782Z,0
2023-02-04T05:35:52.267Z,0
2023-02-04T05:36:52.837Z,0
2023-02-04T05:37:53.643Z,0
2023-02-04T05:38:54.298Z,0
2023-02-04T05:39:55.014Z,0
2023-02-04T05:40:55.535Z,0
2023-02-04T05:41:56.121Z,0
2023-02-04T05:42:56.605Z,0
2023-02-04T05:43:58.202Z,0
2023-02-04T05:45:29.649Z,0
2023-02-04T05:46:30.071Z,0
2023-02-04T05:47:30.621Z,0
2023-02-04T05:48:31.149Z,0
2023-02-04T05:49:31.870Z,0
2023-02-04T05:50:32.950Z,0
2023-02-04T05:51:33.217Z,0
2023-02-04T05:52:33.750Z,0
2023-02-04T05:53:34.287Z,0
2023-02-04T05:54:35.506Z,0
2023-02-04T05:55:36.148Z,0
2023-02-04T05:56:36.923Z,0
2023-02-04T05:57:37.407Z,0
2023-02-04T05:58:39.905Z,0
2023-02-04T05:59:38.616Z,0
2023-02-04T06:00:39.312Z,0
2023-02-04T06:01:40.009Z,0
2023-02-04T06:02:40.863Z,0
2023-02-04T06:03:42.094Z,0
2023-02-04T06:04:44.761Z,0
2023-02-04T06:05:44.000Z,0
2023-02-04T06:06:44.776Z,0
2023-02-04T06:07:45.465Z,0
2023-02-04T06:08:46.060Z,0
2023-02-04T06:09:46.628Z,0
2023-02-04T06:10:47.285Z,0
2023-02-04T06:11:48.047Z,0
2023-02-04T06:12:49.622Z,0
2023-02-04T06:13:50.288Z,0
2023-02-04T06:14:50.868Z,0
2023-02-04T06:15:52.089Z,0
2023-02-04T06:16:52.884Z,0
2023-02-04T06:17:53.600Z,0
2023-02-04T06:18:54.348Z,0
2023-02-04T06:19:54.902Z,0
2023-02-04T06:20:55.416Z,0
2023-02-04T06:21:56.173Z,0
2023-02-04T06:22:56.867Z,0
2023-02-04T06:23:58.713Z,0
2023-02-04T06:25:29.604Z,0
2023-02-04T06:26:30.137Z,0
2023-02-04T06:27:30.819Z,0
2023-02-04T06:28:31.485Z,0
2023-02-04T06:29:32.272Z,0
2023-02-04T06:30:33.381Z,0
2023-02-04T06:31:33.645Z,0
2023-02-04T06:32:34.071Z,0
2023-02-04T06:33:34.708Z,0
2023-02-04T06:34:35.965Z,0
2023-02-04T06:35:36.636Z,0
2023-02-04T06:36:37.177Z,0
2023-02-04T06:37:37.846Z,4
2023-02-04T06:38:38.337Z,4
2023-02-04T06:39:39.415Z,0
2023-02-04T06:40:40.210Z,0
2023-02-04T06:41:40.834Z,4
2023-02-04T06:42:41.433Z,4
2023-02-04T06:43:42.855Z,0
2023-02-04T06:44:44.557Z,4
2023-02-04T06:45:45.347Z,4
2023-02-04T06:46:46.087Z,4
2023-02-04T06:47:46.692Z,8
2023-02-04T06:48:47.204Z,4
2023-02-04T06:49:47.828Z,8
2023-02-04T06:50:48.616Z,8
2023-02-04T06:51:49.314Z,12
2023-02-04T06:52:50.012Z,8
2023-02-04T06:53:50.543Z,12
2023-02-04T06:54:51.868Z,12
2023-02-04T06:55:52.590Z,16
2023-02-04T06:56:53.492Z,16
2023-02-04T06:57:54.304Z,16
2023-02-04T06:58:54.863Z,20
2023-02-04T06:59:55.410Z,24
2023-02-04T07:00:56.066Z,20
2023-02-04T07:01:56.731Z,20
2023-02-04T07:02:57.581Z,24
2023-02-04T07:04:29.066Z,28
2023-02-04T07:05:29.610Z,32
2023-02-04T07:06:30.322Z,32
2023-02-04T07:07:31.018Z,36
2023-02-04T07:08:31.743Z,40
2023-02-04T07:09:32.410Z,44
2023-02-04T07:10:33.380Z,48
2023-02-04T07:11:33.427Z,48
2023-02-04T07:12:34.097Z,48
2023-02-04T07:13:35.809Z,48
2023-02-04T07:14:36.316Z,48
2023-02-04T07:15:37.409Z,48
2023-02-04T07:16:37.901Z,48
2023-02-04T07:17:38.566Z,52
2023-02-04T07:18:39.281Z,56
2023-02-04T07:19:39.994Z,60
2023-02-04T07:20:40.925Z,68
2023-02-04T07:21:41.504Z,72
2023-02-04T07:22:42.029Z,84
2023-02-04T07:23:42.855Z,96
2023-02-04T07:24:44.165Z,104
2023-02-04T07:25:44.868Z,108
2023-02-04T07:26:45.436Z,108
2023-02-04T07:27:46.097Z,108
2023-02-04T07:28:46.574Z,116
2023-02-04T07:29:47.373Z,120
2023-02-04T07:30:48.230Z,128
2023-02-04T07:31:48.779Z,136
2023-02-04T07:32:49.217Z,144
2023-02-04T07:33:49.950Z,144
2023-02-04T07:34:50.967Z,148
2023-02-04T07:35:51.723Z,152
2023-02-04T07:36:52.575Z,148
2023-02-04T07:37:53.114Z,140
2023-02-04T07:38:53.760Z,136
2023-02-04T07:39:54.316Z,132
2023-02-04T07:40:55.033Z,124
2023-02-04T07:41:55.788Z,120
2023-02-04T07:42:56.419Z,128
2023-02-04T07:44:29.188Z,136
2023-02-04T07:45:29.795Z,140
2023-02-04T07:46:30.450Z,140
2023-02-04T07:47:31.125Z,144
2023-02-04T07:48:31.796Z,144
2023-02-04T07:49:32.433Z,144
2023-02-04T07:50:33.257Z,144
2023-02-04T07:51:33.671Z,148
2023-02-04T07:52:34.422Z,160
2023-02-04T07:53:35.164Z,168
2023-02-04T07:54:35.706Z,172
2023-02-04T07:55:36.813Z,180
2023-02-04T07:56:37.474Z,184
2023-02-04T07:57:38.197Z,200
2023-02-04T07:58:38.884Z,208
2023-02-04T07:59:39.589Z,216
2023-02-04T08:00:39.913Z,232
2023-02-04T08:01:40.730Z,240
2023-02-04T08:02:41.493Z,244
2023-02-04T08:03:42.211Z,260
2023-02-04T08:04:43.676Z,260
2023-02-04T08:05:44.231Z,256
2023-02-04T08:06:44.750Z,244
2023-02-04T08:07:45.379Z,232
2023-02-04T08:08:46.042Z,232
2023-02-04T08:09:46.711Z,224
2023-02-04T08:10:47.285Z,228
2023-02-04T08:11:47.798Z,228
2023-02-04T08:12:48.337Z,232
2023-02-04T08:13:49.055Z,236
2023-02-04T08:14:50.781Z,244
2023-02-04T08:15:51.450Z,248
2023-02-04T08:16:51.930Z,248
2023-02-04T08:17:52.461Z,248
2023-02-04T08:18:53.233Z,256
2023-02-04T08:19:53.990Z,260
2023-02-04T08:20:54.721Z,256
2023-02-04T08:21:55.416Z,244
2023-02-04T08:22:55.943Z,240
2023-02-04T08:23:56.482Z,232
2023-02-04T08:25:28.568Z,224
2023-02-04T08:26:29.261Z,220
2023-02-04T08:27:29.894Z,216
2023-02-04T08:28:30.396Z,220
2023-02-04T08:29:30.974Z,212
2023-02-04T08:30:33.059Z,212
2023-02-04T08:31:33.491Z,208
2023-02-04T08:32:34.093Z,208
2023-02-04T08:33:34.660Z,212
2023-02-04T08:34:35.436Z,220
2023-02-04T08:35:36.973Z,220
2023-02-04T08:36:37.609Z,216
2023-02-04T08:37:38.301Z,216
2023-02-04T08:38:38.810Z,216
2023-02-04T08:39:39.339Z,212
2023-02-04T08:40:40.013Z,216
2023-02-04T08:41:40.594Z,220
2023-02-04T08:42:41.327Z,232
2023-02-04T08:43:42.558Z,240
2023-02-04T08:44:43.099Z,248
2023-02-04T08:45:44.377Z,256
2023-02-04T08:46:45.210Z,268
2023-02-04T08:47:45.885Z,272
2023-02-04T08:48:46.521Z,276
2023-02-04T08:49:47.018Z,272
2023-02-04T08:50:47.586Z,272
2023-02-04T08:51:48.310Z,272
2023-02-04T08:52:49.068Z,288
2023-02-04T08:53:49.863Z,312
2023-02-04T08:54:51.080Z,328
2023-02-04T08:55:51.691Z,328
2023-02-04T08:56:52.388Z,324
2023-02-04T08:57:53.071Z,328
2023-02-04T08:58:53.844Z,324
2023-02-04T08:59:54.484Z,328
2023-02-04T09:00:55.115Z,344
2023-02-04T09:01:55.630Z,364
2023-02-04T09:02:56.822Z,424
2023-02-04T09:04:28.025Z,420
2023-02-04T09:05:29.370Z,404
2023-02-04T09:06:29.954Z,384
2023-02-04T09:07:30.636Z,356
2023-02-04T09:08:31.411Z,332
2023-02-04T09:09:32.133Z,304
2023-02-04T09:10:33.103Z,280
2023-02-04T09:11:33.400Z,264
2023-02-04T09:12:34.032Z,256
2023-02-04T09:13:34.643Z,260
2023-02-04T09:14:36.029Z,264
2023-02-04T09:15:37.725Z,276
2023-02-04T09:16:38.315Z,276
2023-02-04T09:17:38.763Z,280
2023-02-04T09:18:39.536Z,284
2023-02-04T09:19:40.231Z,292
2023-02-04T09:20:41.040Z,304
2023-02-04T09:21:42.396Z,320
2023-02-04T09:22:42.906Z,336
2023-02-04T09:23:43.467Z,352
2023-02-04T09:24:44.234Z,368
2023-02-04T09:25:45.620Z,392
2023-02-04T09:26:46.307Z,424
2023-02-04T09:27:46.843Z,436
2023-02-04T09:28:47.380Z,436
2023-02-04T09:29:48.285Z,416
2023-02-04T09:30:49.310Z,396
2023-02-04T09:31:49.941Z,380
2023-02-04T09:32:50.506Z,364
2023-02-04T09:33:51.020Z,340
2023-02-04T09:34:51.705Z,324
2023-02-04T09:35:53.044Z,308
2023-02-04T09:36:53.777Z,300
2023-02-04T09:37:54.464Z,300
2023-02-04T09:38:55.039Z,300
2023-02-04T09:39:55.554Z,288
2023-02-04T09:41:27.067Z,280
2023-02-04T09:42:27.923Z,280
2023-02-04T09:43:28.459Z,272
2023-02-04T09:44:28.995Z,268
2023-02-04T09:45:30.215Z,272
2023-02-04T09:46:30.894Z,272
2023-02-04T09:47:31.686Z,268
2023-02-04T09:48:32.231Z,264
2023-02-04T09:49:32.756Z,264
2023-02-04T09:50:33.944Z,264
2023-02-04T09:51:33.975Z,272
2023-02-04T09:52:34.716Z,284
2023-02-04T09:53:35.374Z,292
2023-02-04T09:54:35.981Z,296
2023-02-04T09:55:37.104Z,304
2023-02-04T09:56:37.700Z,312
2023-02-04T09:57:38.411Z,316
2023-02-04T09:58:39.076Z,312
2023-02-04T09:59:39.688Z,312
2023-02-04T10:00:40.313Z,312
2023-02-04T10:01:40.825Z,320
2023-02-04T10:02:41.472Z,336
2023-02-04T10:03:42.328Z,352
2023-02-04T10:04:42.943Z,372
2023-02-04T10:05:44.329Z,392
2023-02-04T10:06:44.826Z,420
2023-02-04T10:07:45.336Z,452
2023-02-04T10:08:46.066Z,488
2023-02-04T10:09:46.826Z,512
2023-02-04T10:10:47.415Z,516
2023-02-04T10:11:48.003Z,500
2023-02-04T10:12:48.598Z,464
2023-02-04T10:13:50.198Z,440
2023-02-04T10:14:50.949Z,436
2023-02-04T10:15:52.449Z,440
2023-02-04T10:16:53.106Z,432
2023-02-04T10:17:53.576Z,412
2023-02-04T10:18:54.298Z,408
2023-02-04T10:19:54.974Z,420
2023-02-04T10:21:26.430Z,444
2023-02-04T10:22:26.928Z,452
2023-02-04T10:23:27.441Z,464
2023-02-04T10:24:28.311Z,464
2023-02-04T10:25:29.643Z,460
2023-02-04T10:26:30.353Z,464
2023-02-04T10:27:30.901Z,480
2023-02-04T10:28:31.369Z,528
2023-02-04T10:29:31.890Z,596
2023-02-04T10:30:32.931Z,644
2023-02-04T10:31:33.513Z,640
2023-02-04T10:32:33.868Z,624
2023-02-04T10:33:34.378Z,612
2023-02-04T10:34:34.955Z,620
2023-02-04T10:35:36.659Z,648
2023-02-04T10:36:37.414Z,676
2023-02-04T10:37:38.072Z,704
2023-02-04T10:38:38.625Z,732
2023-02-04T10:39:39.151Z,740
2023-02-04T10:40:39.832Z,732
2023-02-04T10:41:40.862Z,728
2023-02-04T10:42:41.552Z,708
2023-02-04T10:43:42.205Z,712
2023-02-04T10:44:43.313Z,724
2023-02-04T10:45:44.608Z,744
2023-02-04T10:46:45.332Z,772
2023-02-04T10:47:46.004Z,812
2023-02-04T10:48:46.662Z,860
2023-02-04T10:49:47.272Z,856
2023-02-04T10:50:47.771Z,848
2023-02-04T10:51:48.532Z,840
2023-02-04T10:52:49.235Z,804
2023-02-04T10:53:49.972Z,752
2023-02-04T10:54:50.552Z,704
2023-02-04T10:55:51.622Z,668
2023-02-04T10:56:52.153Z,648
2023-02-04T10:57:52.840Z,624
2023-02-04T10:58:53.729Z,608
2023-02-04T10:59:54.413Z,608
2023-02-04T11:00:55.418Z,612
2023-02-04T11:02:26.364Z,612
2023-02-04T11:03:27.118Z,608
2023-02-04T11:04:27.741Z,592
2023-02-04T11:05:28.305Z,588
2023-02-04T11:06:29.343Z,596
2023-02-04T11:07:29.845Z,604
2023-02-04T11:08:30.682Z,600
2023-02-04T11:09:31.363Z,592
2023-02-04T11:10:32.432Z,592
2023-02-04T11:11:32.648Z,612
2023-02-04T11:12:33.245Z,644
2023-02-04T11:13:33.999Z,696
2023-02-04T11:14:34.969Z,720
2023-02-04T11:15:36.669Z,748
2023-02-04T11:16:37.135Z,748
2023-02-04T11:17:38.593Z,744
2023-02-04T11:18:39.464Z,748
2023-02-04T11:19:40.720Z,788
2023-02-04T11:20:41.407Z,836
2023-02-04T11:21:42.107Z,912
2023-02-04T11:22:42.780Z,992
2023-02-04T11:23:43.516Z,1036
2023-02-04T11:24:44.345Z,1040
2023-02-04T11:25:46.141Z,1024
2023-02-04T11:26:46.892Z,1020
2023-02-04T11:27:47.468Z,1024
2023-02-04T11:28:47.918Z,1024
2023-02-04T11:29:48.705Z,1040
2023-02-04T11:30:49.817Z,1052
2023-02-04T11:31:50.751Z,1064
2023-02-04T11:32:51.418Z,1072
2023-02-04T11:33:51.810Z,1080
2023-02-04T11:34:52.302Z,1088
2023-02-04T11:35:53.712Z,1100
2023-02-04T11:36:54.375Z,1088
2023-02-04T11:38:25.513Z,1096
2023-02-04T11:39:26.013Z,1104
2023-02-04T11:40:26.545Z,1120
2023-02-04T11:41:27.298Z,1160
2023-02-04T11:42:28.045Z,1188
2023-02-04T11:43:28.783Z,1176
2023-02-04T11:44:30.070Z,1188
2023-02-04T11:45:31.116Z,1156
2023-02-04T11:46:32.003Z,1092
2023-02-04T11:47:32.619Z,1044
2023-02-04T11:48:33.292Z,1016
2023-02-04T11:49:33.822Z,996
2023-02-04T11:50:34.347Z,1020
2023-02-04T11:51:35.015Z,1048
2023-02-04T11:52:35.711Z,1052
2023-02-04T11:53:36.461Z,1080
2023-02-04T11:54:37.104Z,1144
2023-02-04T11:55:37.645Z,1240
2023-02-04T11:56:38.808Z,1304
2023-02-04T11:57:39.516Z,1364
2023-02-04T11:58:40.270Z,1476
2023-02-04T11:59:40.969Z,1576
2023-02-04T12:00:41.631Z,1636
2023-02-04T12:01:42.175Z,1656
2023-02-04T12:02:42.760Z,1644
2023-02-04T12:03:43.645Z,1576
2023-02-04T12:04:44.360Z,1488
2023-02-04T12:05:45.036Z,1388
2023-02-04T12:06:46.350Z,1368
2023-02-04T12:07:46.885Z,1388
2023-02-04T12:08:47.565Z,1392
2023-02-04T12:09:48.317Z,1396
2023-02-04T12:10:49.007Z,1328
2023-02-04T12:11:49.564Z,1232
2023-02-04T12:12:50.072Z,1152
2023-02-04T12:13:50.578Z,1080
2023-02-04T12:14:52.141Z,1056
2023-02-04T12:15:52.925Z,1048
2023-02-04T12:17:25.041Z,1024
2023-02-04T12:18:25.664Z,1020
2023-02-04T12:19:27.658Z,972
2023-02-04T12:20:26.813Z,976
2023-02-04T12:21:27.589Z,1004
2023-02-04T12:22:28.258Z,1028
2023-02-04T12:23:28.786Z,1068
2023-02-04T12:24:29.291Z,1028
2023-02-04T12:25:30.240Z,932
2023-02-04T12:26:31.641Z,832
2023-02-04T12:27:32.325Z,736
2023-02-04T12:28:32.917Z,664
2023-02-04T12:29:33.439Z,616
2023-02-04T12:30:34.040Z,584
2023-02-04T12:31:34.898Z,576
2023-02-04T12:32:35.502Z,600
2023-02-04T12:33:36.100Z,632
2023-02-04T12:34:36.695Z,684
2023-02-04T12:35:37.247Z,736
2023-02-04T12:36:38.453Z,824
2023-02-04T12:37:39.192Z,928
2023-02-04T12:38:39.877Z,980
2023-02-04T12:39:40.768Z,984
2023-02-04T12:40:42.062Z,968
2023-02-04T12:41:42.603Z,964
2023-02-04T12:42:43.269Z,1084
2023-02-04T12:43:43.996Z,1132
2023-02-04T12:44:44.578Z,1092
2023-02-04T12:45:45.886Z,1040
2023-02-04T12:46:47.374Z,988
2023-02-04T12:47:47.932Z,976
2023-02-04T12:48:48.564Z,956
2023-02-04T12:49:49.335Z,924
2023-02-04T12:50:49.840Z,912
2023-02-04T12:51:50.399Z,932
2023-02-04T12:52:50.872Z,952
2023-02-04T12:53:51.629Z,948
2023-02-04T12:54:52.717Z,876
2023-02-04T12:55:53.955Z,728
2023-02-04T12:57:26.076Z,716
2023-02-04T12:58:26.979Z,732
2023-02-04T12:59:28.023Z,764
2023-02-04T13:00:29.017Z,800
2023-02-04T13:01:29.846Z,792
2023-02-04T13:02:30.688Z,764
2023-02-04T13:03:31.421Z,740
2023-02-04T13:04:32.112Z,700
2023-02-04T13:05:33.887Z,688
2023-02-04T13:06:35.231Z,748
2023-02-04T13:07:36.148Z,872
2023-02-04T13:08:36.861Z,924
2023-02-04T13:09:37.537Z,900
2023-02-04T13:10:38.572Z,840
2023-02-04T13:11:39.441Z,768
2023-02-04T13:12:40.515Z,696
2023-02-04T13:13:41.166Z,636
2023-02-04T13:14:41.881Z,580
2023-02-04T13:15:43.490Z,536
2023-02-04T13:16:45.103Z,508
2023-02-04T13:17:45.725Z,496
2023-02-04T13:18:46.328Z,496
2023-02-04T13:19:46.881Z,496
2023-02-04T13:20:47.400Z,484
2023-02-04T13:21:48.133Z,488
2023-02-04T13:22:48.841Z,492
2023-02-04T13:23:49.535Z,504
2023-02-04T13:24:50.077Z,512
2023-02-04T13:25:50.641Z,516
2023-02-04T13:26:52.061Z,500
2023-02-04T13:27:52.845Z,508
2023-02-04T13:29:24.174Z,532
2023-02-04T13:30:24.823Z,536
2023-02-04T13:31:25.299Z,524
2023-02-04T13:32:25.962Z,512
2023-02-04T13:33:26.611Z,508
2023-02-04T13:34:27.373Z,524
2023-02-04T13:35:28.014Z,552
2023-02-04T13:36:29.057Z,580
2023-02-04T13:37:29.543Z,604
2023-02-04T13:38:31.040Z,636
2023-02-04T13:39:31.826Z,660
2023-02-04T13:40:32.476Z,684
2023-02-04T13:41:33.052Z,760
2023-02-04T13:42:33.612Z,828
2023-02-04T13:43:34.086Z,840
2023-02-04T13:44:34.863Z,796
2023-02-04T13:45:36.532Z,744
2023-02-04T13:46:37.659Z,720
2023-02-04T13:47:38.210Z,712
2023-02-04T13:48:38.702Z,720
2023-02-04T13:49:39.432Z,736
2023-02-04T13:50:39.990Z,752
2023-02-04T13:51:40.919Z,792
2023-02-04T13:52:41.470Z,824
2023-02-04T13:53:42.013Z,824
2023-02-04T13:54:42.582Z,824
2023-02-04T13:55:43.346Z,868
2023-02-04T13:56:44.654Z,952
2023-02-04T13:57:45.236Z,1040
2023-02-04T13:58:45.753Z,1080
2023-02-04T13:59:46.253Z,1076
2023-02-04T14:00:47.024Z,1040
2023-02-04T14:01:47.757Z,1016
2023-02-04T14:02:48.378Z,1068
2023-02-04T14:03:48.940Z,1088
2023-02-04T14:04:49.459Z,1164
2023-02-04T14:05:50.009Z,1160
2023-02-04T14:06:51.649Z,1136
2023-02-04T14:07:52.313Z,832
2023-02-04T14:09:23.623Z,672
2023-02-04T14:10:24.133Z,584
2023-02-04T14:11:24.770Z,548
2023-02-04T14:12:25.443Z,536
2023-02-04T14:13:26.082Z,556
2023-02-04T14:14:26.730Z,580
2023-02-04T14:15:27.225Z,588
2023-02-04T14:16:28.606Z,552
2023-02-04T14:17:29.063Z,512
2023-02-04T14:18:30.649Z,476
2023-02-04T14:19:31.417Z,460
2023-02-04T14:20:32.447Z,452
2023-02-04T14:21:32.725Z,460
2023-02-04T14:22:33.246Z,464
2023-02-04T14:23:33.985Z,468
2023-02-04T14:24:34.489Z,496
2023-02-04T14:25:35.001Z,528
2023-02-04T14:26:35.505Z,556
2023-02-04T14:27:36.808Z,572
2023-02-04T14:28:37.273Z,560
2023-02-04T14:29:37.774Z,532
2023-02-04T14:30:38.431Z,504
2023-02-04T14:31:39.112Z,504
2023-02-04T14:32:39.618Z,536
2023-02-04T14:33:40.097Z,576
2023-02-04T14:34:40.940Z,600